sensor_id;sensor_type;location;lat;lon;timestamp;temperature;humidity
17887;DHT22;9069;52.044;7.472;2023-02-15T00:01:40;9.00;95.60
17887;DHT22;9069;52.044;7.472;2023-02-15T00:04:08;9.00;95.40
17887;DHT22;9069;52.044;7.472;2023-02-15T00:06:35;9.00;95.20
17887;DHT22;9069;52.044;7.472;2023-02-15T00:09:03;9.00;95.10
17887;DHT22;9069;52.044;7.472;2023-02-15T00:11:29;8.90;94.90
17887;DHT22;9069;52.044;7.472;2023-02-15T00:14:19;8.90;95.00
17887;DHT22;9069;52.044;7.472;2023-02-15T00:16:48;8.90;94.80
17887;DHT22;9069;52.044;7.472;2023-02-15T00:19:16;8.80;94.70
17887;DHT22;9069;52.044;7.472;2023-02-15T00:21:44;8.80;94.70
17887;DHT22;9069;52.044;7.472;2023-02-15T00:24:12;8.70;94.70
17887;DHT22;9069;52.044;7.472;2023-02-15T00:26:41;8.70;94.70
17887;DHT22;9069;52.044;7.472;2023-02-15T00:29:08;8.70;94.60
17887;DHT22;9069;52.044;7.472;2023-02-15T00:31:36;8.60;94.50
17887;DHT22;9069;52.044;7.472;2023-02-15T00:36:37;8.60;94.80
17887;DHT22;9069;52.044;7.472;2023-02-15T00:39:04;8.60;95.10
17887;DHT22;9069;52.044;7.472;2023-02-15T00:41:32;8.50;95.30
17887;DHT22;9069;52.044;7.472;2023-02-15T00:43:59;8.50;95.50
17887;DHT22;9069;52.044;7.472;2023-02-15T00:46:28;8.50;95.60
17887;DHT22;9069;52.044;7.472;2023-02-15T00:48:55;8.40;95.80
17887;DHT22;9069;52.044;7.472;2023-02-15T00:51:22;8.40;95.80
17887;DHT22;9069;52.044;7.472;2023-02-15T00:53:49;8.40;95.90
17887;DHT22;9069;52.044;7.472;2023-02-15T00:56:16;8.40;96.00
17887;DHT22;9069;52.044;7.472;2023-02-15T00:58:43;8.40;95.90
17887;DHT22;9069;52.044;7.472;2023-02-15T01:01:12;8.40;96.00
17887;DHT22;9069;52.044;7.472;2023-02-15T01:03:39;8.30;96.10
17887;DHT22;9069;52.044;7.472;2023-02-15T01:06:09;8.30;96.40
17887;DHT22;9069;52.044;7.472;2023-02-15T01:08:37;8.30;95.80
17887;DHT22;9069;52.044;7.472;2023-02-15T01:11:12;8.30;95.70
17887;DHT22;9069;52.044;7.472;2023-02-15T01:13:40;8.30;95.60
17887;DHT22;9069;52.044;7.472;2023-02-15T01:16:07;8.30;95.60
17887;DHT22;9069;52.044;7.472;2023-02-15T01:18:35;8.20;95.40
17887;DHT22;9069;52.044;7.472;2023-02-15T01:21:22;8.20;95.30
17887;DHT22;9069;52.044;7.472;2023-02-15T01:23:49;8.20;95.20
17887;DHT22;9069;52.044;7.472;2023-02-15T01:26:16;8.20;95.20
17887;DHT22;9069;52.044;7.472;2023-02-15T01:28:44;8.10;95.10
17887;DHT22;9069;52.044;7.472;2023-02-15T01:31:13;8.10;95.10
17887;DHT22;9069;52.044;7.472;2023-02-15T01:33:41;8.10;95.30
17887;DHT22;9069;52.044;7.472;2023-02-15T01:36:09;8.10;95.40
17887;DHT22;9069;52.044;7.472;2023-02-15T01:38:37;8.00;95.60
17887;DHT22;9069;52.044;7.472;2023-02-15T01:41:06;8.00;95.70
17887;DHT22;9069;52.044;7.472;2023-02-15T01:43:56;8.00;95.80
17887;DHT22;9069;52.044;7.472;2023-02-15T01:46:43;7.90;95.80
17887;DHT22;9069;52.044;7.472;2023-02-15T01:49:16;7.90;95.80
17887;DHT22;9069;52.044;7.472;2023-02-15T01:51:45;7.90;95.80
17887;DHT22;9069;52.044;7.472;2023-02-15T01:54:20;7.90;95.80
17887;DHT22;9069;52.044;7.472;2023-02-15T01:56:48;7.80;95.70
17887;DHT22;9069;52.044;7.472;2023-02-15T01:59:19;7.80;95.80
17887;DHT22;9069;52.044;7.472;2023-02-15T02:01:49;7.80;95.80
17887;DHT22;9069;52.044;7.472;2023-02-15T02:04:29;7.80;95.80
17887;DHT22;9069;52.044;7.472;2023-02-15T02:06:57;7.80;95.90
17887;DHT22;9069;52.044;7.472;2023-02-15T02:09:26;7.80;96.00
17887;DHT22;9069;52.044;7.472;2023-02-15T02:11:53;7.80;96.00
17887;DHT22;9069;52.044;7.472;2023-02-15T02:14:21;7.70;96.00
17887;DHT22;9069;52.044;7.472;2023-02-15T02:17:11;7.70;96.00
17887;DHT22;9069;52.044;7.472;2023-02-15T02:31:00;7.70;95.70
17887;DHT22;9069;52.044;7.472;2023-02-15T02:44:22;7.50;95.70
17887;DHT22;9069;52.044;7.472;2023-02-15T02:46:57;7.50;95.90
17887;DHT22;9069;52.044;7.472;2023-02-15T02:49:33;7.50;96.10
17887;DHT22;9069;52.044;7.472;2023-02-15T02:52:02;7.50;96.30
17887;DHT22;9069;52.044;7.472;2023-02-15T02:54:30;7.50;96.40
17887;DHT22;9069;52.044;7.472;2023-02-15T02:56:59;7.50;96.50
17887;DHT22;9069;52.044;7.472;2023-02-15T02:59:33;7.50;96.50
17887;DHT22;9069;52.044;7.472;2023-02-15T03:02:13;7.40;96.50
17887;DHT22;9069;52.044;7.472;2023-02-15T03:04:46;7.40;96.40
17887;DHT22;9069;52.044;7.472;2023-02-15T03:07:19;7.40;96.30
17887;DHT22;9069;52.044;7.472;2023-02-15T03:09:53;7.40;96.10
17887;DHT22;9069;52.044;7.472;2023-02-15T03:12:25;7.40;96.20
17887;DHT22;9069;52.044;7.472;2023-02-15T03:17:48;7.30;96.00
17887;DHT22;9069;52.044;7.472;2023-02-15T03:20:24;7.30;95.90
17887;DHT22;9069;52.044;7.472;2023-02-15T03:22:59;7.30;95.70
17887;DHT22;9069;52.044;7.472;2023-02-15T03:25:42;7.30;95.70
17887;DHT22;9069;52.044;7.472;2023-02-15T03:28:13;7.20;95.80
17887;DHT22;9069;52.044;7.472;2023-02-15T03:30:45;7.20;95.80
17887;DHT22;9069;52.044;7.472;2023-02-15T03:33:15;7.20;95.90
17887;DHT22;9069;52.044;7.472;2023-02-15T03:35:50;7.20;95.90
17887;DHT22;9069;52.044;7.472;2023-02-15T03:38:23;7.20;95.90
17887;DHT22;9069;52.044;7.472;2023-02-15T03:40:53;7.10;96.00
17887;DHT22;9069;52.044;7.472;2023-02-15T03:43:44;7.10;96.20
17887;DHT22;9069;52.044;7.472;2023-02-15T03:46:25;7.10;96.30
17887;DHT22;9069;52.044;7.472;2023-02-15T03:48:58;7.10;96.40
17887;DHT22;9069;52.044;7.472;2023-02-15T03:51:34;7.10;96.40
17887;DHT22;9069;52.044;7.472;2023-02-15T03:54:12;7.10;96.30
17887;DHT22;9069;52.044;7.472;2023-02-15T03:56:41;7.00;96.20
17887;DHT22;9069;52.044;7.472;2023-02-15T03:59:08;7.00;96.30
17887;DHT22;9069;52.044;7.472;2023-02-15T04:02:24;7.00;96.50
17887;DHT22;9069;52.044;7.472;2023-02-15T04:04:53;7.00;96.50
17887;DHT22;9069;52.044;7.472;2023-02-15T04:07:20;6.90;96.40
17887;DHT22;9069;52.044;7.472;2023-02-15T04:09:46;6.90;96.50
17887;DHT22;9069;52.044;7.472;2023-02-15T04:12:32;6.90;96.60
17887;DHT22;9069;52.044;7.472;2023-02-15T04:14:59;6.90;96.70
17887;DHT22;9069;52.044;7.472;2023-02-15T04:17:44;6.80;96.70
17887;DHT22;9069;52.044;7.472;2023-02-15T04:20:11;6.80;96.70
17887;DHT22;9069;52.044;7.472;2023-02-15T04:22:56;6.80;96.80
17887;DHT22;9069;52.044;7.472;2023-02-15T04:25:41;6.80;96.80
17887;DHT22;9069;52.044;7.472;2023-02-15T04:28:08;6.70;96.90
17887;DHT22;9069;52.044;7.472;2023-02-15T04:30:35;6.70;96.90
17887;DHT22;9069;52.044;7.472;2023-02-15T04:33:01;6.70;97.00
17887;DHT22;9069;52.044;7.472;2023-02-15T04:35:28;6.60;97.00
17887;DHT22;9069;52.044;7.472;2023-02-15T04:37:55;6.60;97.00
17887;DHT22;9069;52.044;7.472;2023-02-15T04:40:22;6.60;97.00
17887;DHT22;9069;52.044;7.472;2023-02-15T04:42:49;6.60;96.90
17887;DHT22;9069;52.044;7.472;2023-02-15T04:45:16;6.60;96.80
17887;DHT22;9069;52.044;7.472;2023-02-15T04:47:43;6.60;96.70
17887;DHT22;9069;52.044;7.472;2023-02-15T04:50:11;6.50;96.60
17887;DHT22;9069;52.044;7.472;2023-02-15T04:52:38;6.50;96.50
17887;DHT22;9069;52.044;7.472;2023-02-15T04:55:05;6.50;96.80
17887;DHT22;9069;52.044;7.472;2023-02-15T04:57:31;6.50;96.50
17887;DHT22;9069;52.044;7.472;2023-02-15T04:59:58;6.50;96.40
17887;DHT22;9069;52.044;7.472;2023-02-15T05:02:25;6.40;96.40
17887;DHT22;9069;52.044;7.472;2023-02-15T05:04:52;6.40;96.60
17887;DHT22;9069;52.044;7.472;2023-02-15T05:07:19;6.40;96.60
17887;DHT22;9069;52.044;7.472;2023-02-15T05:09:47;6.40;96.60
17887;DHT22;9069;52.044;7.472;2023-02-15T05:12:13;6.40;96.60
17887;DHT22;9069;52.044;7.472;2023-02-15T05:14:40;6.40;96.50
17887;DHT22;9069;52.044;7.472;2023-02-15T05:17:07;6.40;96.40
17887;DHT22;9069;52.044;7.472;2023-02-15T05:19:33;6.40;96.40
17887;DHT22;9069;52.044;7.472;2023-02-15T05:22:00;6.40;96.40
17887;DHT22;9069;52.044;7.472;2023-02-15T05:24:27;6.30;96.50
17887;DHT22;9069;52.044;7.472;2023-02-15T05:27:12;6.30;96.50
17887;DHT22;9069;52.044;7.472;2023-02-15T05:29:58;6.30;96.50
17887;DHT22;9069;52.044;7.472;2023-02-15T05:32:25;6.30;96.50
17887;DHT22;9069;52.044;7.472;2023-02-15T05:34:52;6.30;96.60
17887;DHT22;9069;52.044;7.472;2023-02-15T05:37:18;6.30;96.60
17887;DHT22;9069;52.044;7.472;2023-02-15T05:39:45;6.30;96.50
17887;DHT22;9069;52.044;7.472;2023-02-15T05:42:12;6.30;96.50
17887;DHT22;9069;52.044;7.472;2023-02-15T05:44:38;6.30;96.50
17887;DHT22;9069;52.044;7.472;2023-02-15T05:47:05;6.30;96.60
17887;DHT22;9069;52.044;7.472;2023-02-15T05:49:33;6.30;96.60
17887;DHT22;9069;52.044;7.472;2023-02-15T05:52:00;6.20;96.50
17887;DHT22;9069;52.044;7.472;2023-02-15T05:54:28;6.20;96.60
17887;DHT22;9069;52.044;7.472;2023-02-15T05:56:55;6.20;96.60
17887;DHT22;9069;52.044;7.472;2023-02-15T05:59:21;6.20;96.80
17887;DHT22;9069;52.044;7.472;2023-02-15T06:01:48;6.20;96.70
17887;DHT22;9069;52.044;7.472;2023-02-15T06:04:15;6.20;96.80
17887;DHT22;9069;52.044;7.472;2023-02-15T06:06:41;6.20;96.80
17887;DHT22;9069;52.044;7.472;2023-02-15T06:09:13;6.20;97.10
17887;DHT22;9069;52.044;7.472;2023-02-15T06:11:40;6.20;96.50
17887;DHT22;9069;52.044;7.472;2023-02-15T06:14:07;6.20;96.50
17887;DHT22;9069;52.044;7.472;2023-02-15T06:16:33;6.20;96.40
17887;DHT22;9069;52.044;7.472;2023-02-15T06:19:00;6.20;96.40
17887;DHT22;9069;52.044;7.472;2023-02-15T06:21:29;6.20;96.50
17887;DHT22;9069;52.044;7.472;2023-02-15T06:23:56;6.30;96.60
17887;DHT22;9069;52.044;7.472;2023-02-15T06:26:23;6.10;96.60
17887;DHT22;9069;52.044;7.472;2023-02-15T06:28:50;6.10;96.60
17887;DHT22;9069;52.044;7.472;2023-02-15T06:31:16;6.10;96.60
17887;DHT22;9069;52.044;7.472;2023-02-15T06:33:43;6.10;96.70
17887;DHT22;9069;52.044;7.472;2023-02-15T06:36:10;6.10;96.70
17887;DHT22;9069;52.044;7.472;2023-02-15T06:38:37;6.10;96.80
17887;DHT22;9069;52.044;7.472;2023-02-15T06:41:03;6.10;96.80
17887;DHT22;9069;52.044;7.472;2023-02-15T06:43:30;6.10;96.80
17887;DHT22;9069;52.044;7.472;2023-02-15T06:45:57;6.10;96.80
17887;DHT22;9069;52.044;7.472;2023-02-15T06:48:25;6.10;96.80
17887;DHT22;9069;52.044;7.472;2023-02-15T06:50:52;6.10;96.80
17887;DHT22;9069;52.044;7.472;2023-02-15T06:53:19;6.10;96.80
17887;DHT22;9069;52.044;7.472;2023-02-15T06:55:45;6.10;97.00
17887;DHT22;9069;52.044;7.472;2023-02-15T06:58:12;6.10;96.80
17887;DHT22;9069;52.044;7.472;2023-02-15T07:00:39;6.10;96.80
17887;DHT22;9069;52.044;7.472;2023-02-15T07:03:05;6.10;96.80
17887;DHT22;9069;52.044;7.472;2023-02-15T07:05:34;6.10;96.80
17887;DHT22;9069;52.044;7.472;2023-02-15T07:08:01;6.10;96.90
17887;DHT22;9069;52.044;7.472;2023-02-15T07:10:28;6.10;96.90
17887;DHT22;9069;52.044;7.472;2023-02-15T07:12:55;6.10;96.90
17887;DHT22;9069;52.044;7.472;2023-02-15T07:15:22;6.10;96.90
17887;DHT22;9069;52.044;7.472;2023-02-15T07:17:49;6.10;97.00
17887;DHT22;9069;52.044;7.472;2023-02-15T07:20:18;6.10;97.00
17887;DHT22;9069;52.044;7.472;2023-02-15T07:22:45;6.10;97.00
17887;DHT22;9069;52.044;7.472;2023-02-15T07:25:12;6.20;97.10
17887;DHT22;9069;52.044;7.472;2023-02-15T07:27:40;6.10;97.10
17887;DHT22;9069;52.044;7.472;2023-02-15T07:30:09;6.20;97.20
17887;DHT22;9069;52.044;7.472;2023-02-15T07:32:36;6.20;97.20
17887;DHT22;9069;52.044;7.472;2023-02-15T07:35:03;6.20;97.20
17887;DHT22;9069;52.044;7.472;2023-02-15T07:37:30;6.20;97.20
17887;DHT22;9069;52.044;7.472;2023-02-15T07:39:56;6.20;97.20
17887;DHT22;9069;52.044;7.472;2023-02-15T07:42:23;6.30;97.30
17887;DHT22;9069;52.044;7.472;2023-02-15T07:44:50;6.30;97.40
17887;DHT22;9069;52.044;7.472;2023-02-15T07:47:17;6.30;97.50
17887;DHT22;9069;52.044;7.472;2023-02-15T07:49:45;6.30;97.50
17887;DHT22;9069;52.044;7.472;2023-02-15T07:52:11;6.30;97.60
17887;DHT22;9069;52.044;7.472;2023-02-15T07:54:38;6.40;97.70
17887;DHT22;9069;52.044;7.472;2023-02-15T07:57:05;6.40;97.70
17887;DHT22;9069;52.044;7.472;2023-02-15T07:59:32;6.40;97.80
17887;DHT22;9069;52.044;7.472;2023-02-15T08:01:58;6.40;97.80
17887;DHT22;9069;52.044;7.472;2023-02-15T08:04:25;6.50;97.90
17887;DHT22;9069;52.044;7.472;2023-02-15T08:06:53;6.60;98.00
17887;DHT22;9069;52.044;7.472;2023-02-15T08:09:21;6.60;98.40
17887;DHT22;9069;52.044;7.472;2023-02-15T08:11:48;6.60;98.10
17887;DHT22;9069;52.044;7.472;2023-02-15T08:14:20;6.70;98.20
17887;DHT22;9069;52.044;7.472;2023-02-15T08:16:51;6.70;98.20
17887;DHT22;9069;52.044;7.472;2023-02-15T08:22:00;6.80;98.30
17887;DHT22;9069;52.044;7.472;2023-02-15T08:24:29;6.90;98.30
17887;DHT22;9069;52.044;7.472;2023-02-15T08:26:56;6.90;98.30
17887;DHT22;9069;52.044;7.472;2023-02-15T08:29:26;6.90;98.30
17887;DHT22;9069;52.044;7.472;2023-02-15T08:31:58;7.00;98.30
17887;DHT22;9069;52.044;7.472;2023-02-15T08:34:30;7.00;98.60
17887;DHT22;9069;52.044;7.472;2023-02-15T08:36:57;7.10;98.60
17887;DHT22;9069;52.044;7.472;2023-02-15T08:39:23;7.10;98.20
17887;DHT22;9069;52.044;7.472;2023-02-15T08:41:50;7.10;98.20
17887;DHT22;9069;52.044;7.472;2023-02-15T08:44:18;7.20;98.30
17887;DHT22;9069;52.044;7.472;2023-02-15T08:46:47;7.30;98.30
17887;DHT22;9069;52.044;7.472;2023-02-15T08:49:21;7.30;98.30
17887;DHT22;9069;52.044;7.472;2023-02-15T08:51:48;7.40;98.30
17887;DHT22;9069;52.044;7.472;2023-02-15T08:54:18;7.40;98.30
17887;DHT22;9069;52.044;7.472;2023-02-15T08:56:45;7.50;98.30
17887;DHT22;9069;52.044;7.472;2023-02-15T08:59:15;7.50;98.30
17887;DHT22;9069;52.044;7.472;2023-02-15T09:01:42;7.60;98.30
17887;DHT22;9069;52.044;7.472;2023-02-15T09:04:10;7.60;98.40
17887;DHT22;9069;52.044;7.472;2023-02-15T09:06:38;7.70;98.60
17887;DHT22;9069;52.044;7.472;2023-02-15T09:09:06;7.80;98.80
17887;DHT22;9069;52.044;7.472;2023-02-15T09:11:36;7.90;99.10
17887;DHT22;9069;52.044;7.472;2023-02-15T09:14:08;8.10;99.30
17887;DHT22;9069;52.044;7.472;2023-02-15T09:16:37;8.30;99.50
17887;DHT22;9069;52.044;7.472;2023-02-15T09:19:05;8.50;99.90
17887;DHT22;9069;52.044;7.472;2023-02-15T09:21:35;8.70;99.90
17887;DHT22;9069;52.044;7.472;2023-02-15T09:24:05;8.90;99.90
17887;DHT22;9069;52.044;7.472;2023-02-15T09:26:34;9.20;99.90
17887;DHT22;9069;52.044;7.472;2023-02-15T09:29:02;9.50;99.90
17887;DHT22;9069;52.044;7.472;2023-02-15T09:31:37;9.80;99.90
17887;DHT22;9069;52.044;7.472;2023-02-15T09:34:03;10.00;99.90
17887;DHT22;9069;52.044;7.472;2023-02-15T09:36:35;10.30;99.90
17887;DHT22;9069;52.044;7.472;2023-02-15T09:39:12;10.60;99.90
17887;DHT22;9069;52.044;7.472;2023-02-15T09:56:10;12.70;99.20
17887;DHT22;9069;52.044;7.472;2023-02-15T10:06:37;14.30;98.80
17887;DHT22;9069;52.044;7.472;2023-02-15T10:15:24;15.60;96.70
17887;DHT22;9069;52.044;7.472;2023-02-15T10:21:00;16.40;95.90
17887;DHT22;9069;52.044;7.472;2023-02-15T10:26:46;17.30;93.00
17887;DHT22;9069;52.044;7.472;2023-02-15T10:29:35;17.60;93.70
17887;DHT22;9069;52.044;7.472;2023-02-15T10:34:39;18.20;84.40
17887;DHT22;9069;52.044;7.472;2023-02-15T10:45:49;18.70;78.80
17887;DHT22;9069;52.044;7.472;2023-02-15T10:54:44;18.60;76.40
17887;DHT22;9069;52.044;7.472;2023-02-15T10:57:36;18.50;75.50
17887;DHT22;9069;52.044;7.472;2023-02-15T11:00:34;18.30;75.10
17887;DHT22;9069;52.044;7.472;2023-02-15T11:06:04;18.10;75.10
17887;DHT22;9069;52.044;7.472;2023-02-15T11:08:35;18.00;75.50
17887;DHT22;9069;52.044;7.472;2023-02-15T11:11:14;17.90;75.70
17887;DHT22;9069;52.044;7.472;2023-02-15T11:13:49;17.80;74.20
17887;DHT22;9069;52.044;7.472;2023-02-15T11:16:22;17.70;74.10
17887;DHT22;9069;52.044;7.472;2023-02-15T11:19:01;17.60;74.90
17887;DHT22;9069;52.044;7.472;2023-02-15T11:21:36;17.50;75.10
17887;DHT22;9069;52.044;7.472;2023-02-15T11:24:13;17.40;75.10
17887;DHT22;9069;52.044;7.472;2023-02-15T11:26:54;17.30;75.30
17887;DHT22;9069;52.044;7.472;2023-02-15T11:29:32;17.20;75.00
17887;DHT22;9069;52.044;7.472;2023-02-15T11:32:03;17.20;75.30
17887;DHT22;9069;52.044;7.472;2023-02-15T11:34:45;17.10;76.00
17887;DHT22;9069;52.044;7.472;2023-02-15T11:37:16;17.10;75.90
17887;DHT22;9069;52.044;7.472;2023-02-15T11:39:44;17.00;76.30
17887;DHT22;9069;52.044;7.472;2023-02-15T11:42:14;16.90;77.00
17887;DHT22;9069;52.044;7.472;2023-02-15T11:45:18;16.90;76.50
17887;DHT22;9069;52.044;7.472;2023-02-15T11:47:47;16.90;75.20
17887;DHT22;9069;52.044;7.472;2023-02-15T11:50:16;16.80;77.30
17887;DHT22;9069;52.044;7.472;2023-02-15T11:52:44;16.80;76.90
17887;DHT22;9069;52.044;7.472;2023-02-15T11:55:19;16.80;77.20
17887;DHT22;9069;52.044;7.472;2023-02-15T11:57:54;16.70;76.20
17887;DHT22;9069;52.044;7.472;2023-02-15T12:00:41;16.70;76.80
17887;DHT22;9069;52.044;7.472;2023-02-15T12:03:21;16.70;76.30
17887;DHT22;9069;52.044;7.472;2023-02-15T12:05:58;16.70;77.20
17887;DHT22;9069;52.044;7.472;2023-02-15T12:08:37;16.70;77.50
17887;DHT22;9069;52.044;7.472;2023-02-15T12:11:22;16.70;77.10
17887;DHT22;9069;52.044;7.472;2023-02-15T12:13:56;16.70;77.00
17887;DHT22;9069;52.044;7.472;2023-02-15T12:16:25;16.70;77.30
17887;DHT22;9069;52.044;7.472;2023-02-15T12:18:56;16.70;77.50
17887;DHT22;9069;52.044;7.472;2023-02-15T12:21:33;16.70;76.90
17887;DHT22;9069;52.044;7.472;2023-02-15T12:24:03;16.60;75.60
17887;DHT22;9069;52.044;7.472;2023-02-15T12:26:36;16.60;76.20
17887;DHT22;9069;52.044;7.472;2023-02-15T12:29:16;16.60;76.60
17887;DHT22;9069;52.044;7.472;2023-02-15T12:31:45;16.60;75.60
17887;DHT22;9069;52.044;7.472;2023-02-15T12:34:25;16.50;77.10
17887;DHT22;9069;52.044;7.472;2023-02-15T12:36:55;16.50;76.50
17887;DHT22;9069;52.044;7.472;2023-02-15T12:39:26;16.50;77.40
17887;DHT22;9069;52.044;7.472;2023-02-15T12:44:25;16.50;77.60
17887;DHT22;9069;52.044;7.472;2023-02-15T12:47:06;16.40;77.90
17887;DHT22;9069;52.044;7.472;2023-02-15T12:49:37;16.40;77.20
17887;DHT22;9069;52.044;7.472;2023-02-15T12:54:47;16.40;75.90
17887;DHT22;9069;52.044;7.472;2023-02-15T13:00:00;16.50;76.50
17887;DHT22;9069;52.044;7.472;2023-02-15T13:02:43;16.40;77.20
17887;DHT22;9069;52.044;7.472;2023-02-15T13:07:52;16.30;76.90
17887;DHT22;9069;52.044;7.472;2023-02-15T13:10:23;16.30;77.10
17887;DHT22;9069;52.044;7.472;2023-02-15T13:12:52;16.30;77.30
17887;DHT22;9069;52.044;7.472;2023-02-15T13:17:57;16.20;77.00
17887;DHT22;9069;52.044;7.472;2023-02-15T13:20:25;16.20;77.20
17887;DHT22;9069;52.044;7.472;2023-02-15T13:23:01;16.20;78.20
17887;DHT22;9069;52.044;7.472;2023-02-15T13:25:38;16.20;77.10
17887;DHT22;9069;52.044;7.472;2023-02-15T13:28:11;16.20;77.50
17887;DHT22;9069;52.044;7.472;2023-02-15T13:30:43;16.20;77.20
17887;DHT22;9069;52.044;7.472;2023-02-15T13:33:16;16.20;77.50
17887;DHT22;9069;52.044;7.472;2023-02-15T13:35:52;16.10;77.70
17887;DHT22;9069;52.044;7.472;2023-02-15T13:40:55;16.10;78.20
17887;DHT22;9069;52.044;7.472;2023-02-15T13:44:08;16.10;77.60
17887;DHT22;9069;52.044;7.472;2023-02-15T13:46:52;16.10;77.20
17887;DHT22;9069;52.044;7.472;2023-02-15T13:54:44;16.00;78.60
17887;DHT22;9069;52.044;7.472;2023-02-15T13:57:28;16.00;78.30
17887;DHT22;9069;52.044;7.472;2023-02-15T14:03:04;16.00;77.80
17887;DHT22;9069;52.044;7.472;2023-02-15T14:13:58;15.90;77.50
17887;DHT22;9069;52.044;7.472;2023-02-15T14:16:41;15.90;77.50
17887;DHT22;9069;52.044;7.472;2023-02-15T14:19:40;15.90;77.40
17887;DHT22;9069;52.044;7.472;2023-02-15T14:27:52;15.80;77.00
17887;DHT22;9069;52.044;7.472;2023-02-15T14:30:25;15.80;77.20
17887;DHT22;9069;52.044;7.472;2023-02-15T14:32:56;15.80;77.70
17887;DHT22;9069;52.044;7.472;2023-02-15T14:35:27;15.80;77.60
17887;DHT22;9069;52.044;7.472;2023-02-15T14:46:35;15.70;77.90
17887;DHT22;9069;52.044;7.472;2023-02-15T14:49:22;15.70;76.70
17887;DHT22;9069;52.044;7.472;2023-02-15T14:56:44;15.70;77.90
17887;DHT22;9069;52.044;7.472;2023-02-15T15:01:51;15.60;77.90
17887;DHT22;9069;52.044;7.472;2023-02-15T15:04:43;15.70;77.40
17887;DHT22;9069;52.044;7.472;2023-02-15T15:07:23;15.70;77.60
17887;DHT22;9069;52.044;7.472;2023-02-15T15:10:23;15.70;78.10
17887;DHT22;9069;52.044;7.472;2023-02-15T15:12:53;15.70;77.80
17887;DHT22;9069;52.044;7.472;2023-02-15T15:18:09;15.60;78.00
17887;DHT22;9069;52.044;7.472;2023-02-15T15:20:49;15.60;77.70
17887;DHT22;9069;52.044;7.472;2023-02-15T15:37:20;15.50;78.80
17887;DHT22;9069;52.044;7.472;2023-02-15T15:40:11;15.50;77.60
17887;DHT22;9069;52.044;7.472;2023-02-15T15:43:04;15.40;78.10
17887;DHT22;9069;52.044;7.472;2023-02-15T15:45:40;15.40;78.00
17887;DHT22;9069;52.044;7.472;2023-02-15T15:51:00;15.30;77.90
17887;DHT22;9069;52.044;7.472;2023-02-15T15:53:29;15.30;78.70
17887;DHT22;9069;52.044;7.472;2023-02-15T15:56:02;15.30;78.70
17887;DHT22;9069;52.044;7.472;2023-02-15T15:58:31;15.20;78.60
17887;DHT22;9069;52.044;7.472;2023-02-15T16:01:11;15.20;78.90
17887;DHT22;9069;52.044;7.472;2023-02-15T16:03:54;15.20;77.80
17887;DHT22;9069;52.044;7.472;2023-02-15T16:06:37;15.20;77.80
17887;DHT22;9069;52.044;7.472;2023-02-15T16:09:15;15.10;78.20
17887;DHT22;9069;52.044;7.472;2023-02-15T16:11:46;15.10;78.40
17887;DHT22;9069;52.044;7.472;2023-02-15T16:14:26;15.10;78.80
17887;DHT22;9069;52.044;7.472;2023-02-15T16:16:58;15.00;78.10
17887;DHT22;9069;52.044;7.472;2023-02-15T16:19:29;15.00;78.70
17887;DHT22;9069;52.044;7.472;2023-02-15T16:21:59;15.00;78.80
17887;DHT22;9069;52.044;7.472;2023-02-15T16:29:49;14.80;78.40
17887;DHT22;9069;52.044;7.472;2023-02-15T16:32:26;14.80;79.00
17887;DHT22;9069;52.044;7.472;2023-02-15T16:35:00;14.70;78.10
17887;DHT22;9069;52.044;7.472;2023-02-15T16:37:32;14.70;78.80
17887;DHT22;9069;52.044;7.472;2023-02-15T16:39:59;14.60;78.70
17887;DHT22;9069;52.044;7.472;2023-02-15T16:42:26;14.60;79.00
17887;DHT22;9069;52.044;7.472;2023-02-15T16:45:12;14.50;79.00
17887;DHT22;9069;52.044;7.472;2023-02-15T16:47:42;14.50;78.30
17887;DHT22;9069;52.044;7.472;2023-02-15T16:50:21;14.40;78.90
17887;DHT22;9069;52.044;7.472;2023-02-15T16:52:49;14.30;78.60
17887;DHT22;9069;52.044;7.472;2023-02-15T16:55:26;14.30;79.10
17887;DHT22;9069;52.044;7.472;2023-02-15T16:58:04;14.30;78.80
17887;DHT22;9069;52.044;7.472;2023-02-15T17:00:34;14.20;78.60
17887;DHT22;9069;52.044;7.472;2023-02-15T17:03:12;14.10;79.20
17887;DHT22;9069;52.044;7.472;2023-02-15T17:05:48;14.10;79.20
17887;DHT22;9069;52.044;7.472;2023-02-15T17:11:03;14.00;79.80
17887;DHT22;9069;52.044;7.472;2023-02-15T17:13:31;13.90;79.20
17887;DHT22;9069;52.044;7.472;2023-02-15T17:18:27;13.80;80.10
17887;DHT22;9069;52.044;7.472;2023-02-15T17:20:57;13.80;79.90
17887;DHT22;9069;52.044;7.472;2023-02-15T17:23:32;13.70;79.90
17887;DHT22;9069;52.044;7.472;2023-02-15T17:26:10;13.70;80.30
17887;DHT22;9069;52.044;7.472;2023-02-15T17:28:54;13.60;80.10
17887;DHT22;9069;52.044;7.472;2023-02-15T17:31:25;13.60;80.10
17887;DHT22;9069;52.044;7.472;2023-02-15T17:33:55;13.50;80.40
17887;DHT22;9069;52.044;7.472;2023-02-15T17:36:24;13.50;80.60
17887;DHT22;9069;52.044;7.472;2023-02-15T17:41:26;13.40;81.00
17887;DHT22;9069;52.044;7.472;2023-02-15T17:43:53;13.40;81.10
17887;DHT22;9069;52.044;7.472;2023-02-15T17:46:20;13.30;81.10
17887;DHT22;9069;52.044;7.472;2023-02-15T17:48:51;13.30;80.80
17887;DHT22;9069;52.044;7.472;2023-02-15T17:51:21;13.30;80.40
17887;DHT22;9069;52.044;7.472;2023-02-15T17:53:48;13.20;80.70
17887;DHT22;9069;52.044;7.472;2023-02-15T17:56:35;13.20;80.50
17887;DHT22;9069;52.044;7.472;2023-02-15T17:59:03;13.20;80.70
17887;DHT22;9069;52.044;7.472;2023-02-15T18:01:40;13.10;80.90
17887;DHT22;9069;52.044;7.472;2023-02-15T18:04:28;13.10;80.10
17887;DHT22;9069;52.044;7.472;2023-02-15T18:07:13;13.00;80.10
17887;DHT22;9069;52.044;7.472;2023-02-15T18:09:59;13.00;80.10
17887;DHT22;9069;52.044;7.472;2023-02-15T18:12:44;13.00;80.30
17887;DHT22;9069;52.044;7.472;2023-02-15T18:15:11;13.00;80.60
17887;DHT22;9069;52.044;7.472;2023-02-15T18:17:44;12.90;80.50
17887;DHT22;9069;52.044;7.472;2023-02-15T18:20:19;12.90;79.90
17887;DHT22;9069;52.044;7.472;2023-02-15T18:22:46;12.90;79.50
17887;DHT22;9069;52.044;7.472;2023-02-15T18:25:15;12.90;79.90
17887;DHT22;9069;52.044;7.472;2023-02-15T18:27:42;12.90;80.30
17887;DHT22;9069;52.044;7.472;2023-02-15T18:30:20;12.90;80.50
17887;DHT22;9069;52.044;7.472;2023-02-15T18:32:51;12.90;80.20
17887;DHT22;9069;52.044;7.472;2023-02-15T18:35:22;12.80;80.00
17887;DHT22;9069;52.044;7.472;2023-02-15T18:37:51;12.80;80.40
17887;DHT22;9069;52.044;7.472;2023-02-15T18:40:25;12.80;79.60
17887;DHT22;9069;52.044;7.472;2023-02-15T18:42:52;12.80;79.50
17887;DHT22;9069;52.044;7.472;2023-02-15T18:45:26;12.80;79.80
17887;DHT22;9069;52.044;7.472;2023-02-15T18:47:57;12.80;79.60
17887;DHT22;9069;52.044;7.472;2023-02-15T18:50:27;12.70;80.60
17887;DHT22;9069;52.044;7.472;2023-02-15T18:52:55;12.70;79.50
17887;DHT22;9069;52.044;7.472;2023-02-15T18:55:27;12.70;79.80
17887;DHT22;9069;52.044;7.472;2023-02-15T18:57:57;12.70;79.70
17887;DHT22;9069;52.044;7.472;2023-02-15T19:00:26;12.70;79.20
17887;DHT22;9069;52.044;7.472;2023-02-15T19:02:56;12.70;79.00
17887;DHT22;9069;52.044;7.472;2023-02-15T19:05:24;12.60;78.80
17887;DHT22;9069;52.044;7.472;2023-02-15T19:07:53;12.60;78.80
17887;DHT22;9069;52.044;7.472;2023-02-15T19:10:23;12.60;79.50
17887;DHT22;9069;52.044;7.472;2023-02-15T19:12:50;12.60;79.20
17887;DHT22;9069;52.044;7.472;2023-02-15T19:15:23;12.60;79.20
17887;DHT22;9069;52.044;7.472;2023-02-15T19:17:51;12.50;78.70